Crooks, SD

3:41 AM CDT on August 20, 2014 (GMT -0500)
Foss | Change Station
CLOSE
Current Station
Airport
Location: Sioux Falls,
Elevation: 1427 ft
Nearby Weather Stations

Elev 1427 ft 43.58 °N, 96.75 °W | Updated 45 minutes ago

Clear
Clear
68 °F
Feels Like 68 °F
N
0
Wind Variable Wind from North

Today
High -- | Low -- °F
--% Chance of Precip.
Yesterday
High -- | Low -- °F
Precip. -- in
6:37 AM 8:22 PM
Waning Crescent, 23% visible
Pressure 29.77 in
Visibility 10.0 miles
Clouds Clear
Dew Point 63 °F
Humidity 84%
Rainfall 0.00 in
Snow Depth Not available.
UV 0 out of 12
Pollen 9.80 out of 12
Air Quality Not available.
Flu Activity Not available.
METAR KFSD 200756Z AUTO 00000KT 10SM CLR 20/17 A2979 RMK AO2 SLP079 T02000172

More Conditions Fewer Conditions

Pressure 29.77 in
Visibility 10.0 miles
Clouds Clear
Dew Point 63 °F
Humidity 84%
Rainfall 0.00 in
Snow Depth Not available.
UV 0 out of 12
Pollen 9.80 out of 12
Air Quality Not available.
Flu Activity Not available.
METAR KFSD 200756Z AUTO 00000KT 10SM CLR 20/17 A2979 RMK AO2 SLP079 T02000172

More Conditions Fewer Conditions

10-Day Weather Forecast

Almanac

Astronomy

Aug. 20, 2014 Rise Set
Actual Time 6:37 AM CDT 8:22 PM CDT
Civil Twilight 6:06 AM CDT 8:53 PM CDT
Nautical Twilight 5:29 AM CDT 9:30 PM CDT
Astronomical Twilight 4:49 AM CDT 10:10 PM CDT
Moon 2:14 AM CDT 5:12 PM CDT
Length of Visible Light 14h 46m
Length of Day
13h 45m
Tomorrow will be 2m 45s shorter.
Waning Crescent, 23% of the Moon is Illuminated
Today
Waning Crescent
Aug 25
New
Sep 2
First Quarter
Sep 8
Full
Sep 15
Last Quarter

Today's Extremes

State Highs State Lows

Community

WunderPhotos

Upload Photos

1,745,600 photos uploaded!

Nearby

Snow Depth

Station Depth Elevation
North Rapid Creek 0 in 6130 ft
Blind Park 0 in 6890 ft

Earthquake Activity

City Distance Mag. Time & Date
No recent earthquake activity has been reported nearby.
Minimum magnitude displayed is 2.5.

Coastal Water Temperatures

Place Temperature
No Stations Reporting

Nearby Weather Stations